createdAt,value
2023-01-08T00:02:19.124Z,16.60
2023-01-08T00:07:21.958Z,16.70
2023-01-08T00:12:24.856Z,16.03
2023-01-08T00:17:27.691Z,16.20
2023-01-08T00:22:30.524Z,14.73
2023-01-08T00:27:33.388Z,14.07
2023-01-08T05:31:26.983Z,10.20
2023-01-08T05:36:31.114Z,10.33
2023-01-08T05:41:34.185Z,8.67
2023-01-08T05:46:37.251Z,7.97
2023-01-08T05:51:40.161Z,9.87
2023-01-08T05:56:44.080Z,9.73
2023-01-08T06:01:47.055Z,9.07
2023-01-08T06:06:49.909Z,8.43
2023-01-08T06:11:53.148Z,11.00
2023-01-08T06:16:55.985Z,8.00
2023-01-08T06:21:58.855Z,10.47
2023-01-08T06:27:01.688Z,10.43
2023-01-08T06:32:04.643Z,9.53
2023-01-08T06:37:07.464Z,10.63
2023-01-08T06:42:10.284Z,10.57
2023-01-08T06:47:13.090Z,10.67
2023-01-08T06:52:15.941Z,9.67
2023-01-08T06:57:18.791Z,9.57
2023-01-08T07:02:23.980Z,10.47
2023-01-08T07:07:28.181Z,8.87
2023-01-08T07:12:31.186Z,11.33
2023-01-08T07:17:34.188Z,10.87
2023-01-08T07:22:37.141Z,10.20
2023-01-08T07:27:40.039Z,10.03
2023-01-08T07:32:42.887Z,10.97
2023-01-08T07:37:45.973Z,11.07
2023-01-08T07:42:49.070Z,13.00
2023-01-08T07:47:51.890Z,13.23
2023-01-08T07:53:00.245Z,13.63
2023-01-08T07:58:09.995Z,12.90
2023-01-08T08:03:12.919Z,10.33
2023-01-08T08:08:15.864Z,11.90
2023-01-08T08:13:18.667Z,10.80
2023-01-08T08:18:21.484Z,10.73
2023-01-08T08:23:24.809Z,12.40
2023-01-08T08:28:27.669Z,12.03
2023-01-08T08:33:30.653Z,11.60
2023-01-08T08:38:33.506Z,13.40
2023-01-08T08:43:36.423Z,13.67
2023-01-08T08:48:40.074Z,14.97
2023-01-08T08:53:42.890Z,14.97
2023-01-08T08:58:45.858Z,14.80
2023-01-08T09:03:48.717Z,14.50
2023-01-08T09:08:51.564Z,19.23
2023-01-08T09:13:54.492Z,20.03
2023-01-08T09:18:57.372Z,15.43
2023-01-08T09:24:00.226Z,14.47
2023-01-08T09:29:03.343Z,14.10
2023-01-08T09:34:06.896Z,13.80
2023-01-08T09:39:13.026Z,12.03
2023-01-08T09:44:24.178Z,12.63
2023-01-08T09:49:41.638Z,10.23
2023-01-08T09:54:44.737Z,11.17
2023-01-08T09:59:49.212Z,10.50
2023-01-08T10:05:03.033Z,9.30
2023-01-08T10:10:06.534Z,10.47
2023-01-08T10:15:14.954Z,9.87
2023-01-08T10:20:21.100Z,9.13
2023-01-08T10:25:27.120Z,9.90
2023-01-08T10:30:37.695Z,10.13
2023-01-08T10:35:43.063Z,9.60
2023-01-08T10:40:50.144Z,9.90
2023-01-08T10:46:18.754Z,10.27
2023-01-08T10:51:24.477Z,8.67
2023-01-08T10:56:29.701Z,9.90
2023-01-08T11:01:33.091Z,7.23
2023-01-08T11:06:45.402Z,7.53
2023-01-08T11:11:48.678Z,8.00
2023-01-08T11:16:51.563Z,8.83
2023-01-08T11:22:00.050Z,7.80
2023-01-08T11:27:33.472Z,8.77
2023-01-08T11:32:42.403Z,10.20
2023-01-08T11:38:06.103Z,11.63
2023-01-08T11:43:29.126Z,9.53
2023-01-08T11:48:31.881Z,8.93
2023-01-08T11:53:59.230Z,8.67
2023-01-08T11:59:06.061Z,10.20
2023-01-08T12:04:22.811Z,11.47
2023-01-08T12:09:47.283Z,11.60
2023-01-08T12:14:56.286Z,14.33
2023-01-08T12:20:16.841Z,12.57
2023-01-08T12:25:55.315Z,12.47
2023-01-08T12:31:12.415Z,9.53
2023-01-08T12:36:21.924Z,17.83
2023-01-08T12:41:25.868Z,9.20
2023-01-08T12:46:36.841Z,12.60
2023-01-08T12:52:17.520Z,11.83
2023-01-08T12:57:25.043Z,9.77
2023-01-08T13:02:38.416Z,9.60
2023-01-08T13:07:46.972Z,9.10
2023-01-08T13:12:55.138Z,10.37
2023-01-08T13:18:15.681Z,8.67
2023-01-08T13:23:25.249Z,8.90
2023-01-08T13:28:44.216Z,8.90
2023-01-08T13:33:49.110Z,10.27
2023-01-08T13:39:10.758Z,10.50
2023-01-08T13:44:23.738Z,9.40
2023-01-08T13:49:36.785Z,12.00
2023-01-08T13:54:40.715Z,10.07
2023-01-08T13:59:50.227Z,9.10
2023-01-08T14:04:54.111Z,8.10
2023-01-08T14:10:08.569Z,8.17
2023-01-08T14:15:21.398Z,11.13
2023-01-08T14:20:38.701Z,10.10
2023-01-08T14:25:42.325Z,10.60
2023-01-08T14:30:55.721Z,10.30
2023-01-08T14:35:58.996Z,9.07
2023-01-08T14:41:08.015Z,8.53
2023-01-08T14:46:31.871Z,8.77
2023-01-08T14:51:35.368Z,11.90
2023-01-08T14:56:38.232Z,11.27
2023-01-08T15:01:41.828Z,14.47
2023-01-08T15:06:45.316Z,18.67
2023-01-08T15:11:56.548Z,20.40
2023-01-08T15:17:12.461Z,18.43
2023-01-08T15:22:20.496Z,16.50
2023-01-08T15:27:23.433Z,18.60
2023-01-08T15:32:34.818Z,17.50
2023-01-08T15:37:37.681Z,20.03
2023-01-08T15:42:59.444Z,18.00
2023-01-08T15:48:02.396Z,16.97
2023-01-08T15:53:08.019Z,18.97
2023-01-08T15:58:12.759Z,17.77
2023-01-08T16:03:17.304Z,17.90
2023-01-08T16:08:20.167Z,17.07
2023-01-08T16:13:22.995Z,17.47
2023-01-08T16:18:25.836Z,15.07
2023-01-08T16:23:28.656Z,17.57
2023-01-08T16:28:31.506Z,18.27
2023-01-08T16:33:34.966Z,18.40
2023-01-08T16:38:38.052Z,18.13
2023-01-08T16:43:42.993Z,16.80
2023-01-08T16:48:49.139Z,17.33
2023-01-08T16:53:52.193Z,22.57
2023-01-08T16:58:55.206Z,21.33
2023-01-08T17:04:00.415Z,23.40
2023-01-08T17:09:04.285Z,22.53
2023-01-08T17:14:07.336Z,22.43
2023-01-08T17:19:10.217Z,22.50
2023-01-08T17:24:13.243Z,20.43
2023-01-08T17:29:16.154Z,21.77
2023-01-08T17:34:19.058Z,21.23
2023-01-08T17:39:21.899Z,19.70
2023-01-08T17:44:26.626Z,20.00
2023-01-08T17:49:31.149Z,18.20
2023-01-08T17:54:34.025Z,17.07
2023-01-08T17:59:37.330Z,16.33
2023-01-08T18:04:40.887Z,14.63
2023-01-08T18:09:44.839Z,16.53
2023-01-08T18:14:47.803Z,14.73
2023-01-08T18:19:50.932Z,14.60
2023-01-08T18:24:54.001Z,13.83
2023-01-08T18:29:56.852Z,14.10
2023-01-08T18:34:59.844Z,13.63
2023-01-08T18:40:02.834Z,17.50
2023-01-08T18:45:06.073Z,18.23
2023-01-08T18:50:10.421Z,16.40
2023-01-08T18:55:13.499Z,15.47
2023-01-08T19:00:16.809Z,26.13
2023-01-08T19:05:19.823Z,34.00
2023-01-08T19:10:22.839Z,22.57
2023-01-08T19:15:25.906Z,23.93
2023-01-08T19:20:29.069Z,19.20
2023-01-08T19:25:32.144Z,17.57
2023-01-08T19:30:35.431Z,17.47
2023-01-08T19:35:41.567Z,17.43
2023-01-08T19:40:46.180Z,16.80
2023-01-08T19:45:49.272Z,16.17
2023-01-08T19:50:52.353Z,18.97
2023-01-08T19:55:55.200Z,18.13
2023-01-08T20:00:58.091Z,19.47
2023-01-08T20:06:04.813Z,17.50
2023-01-08T20:11:09.678Z,17.03
2023-01-08T20:16:15.109Z,18.47
2023-01-08T20:21:24.186Z,19.03
2023-01-08T20:26:28.247Z,17.93
2023-01-08T20:31:33.132Z,17.33
2023-01-08T20:36:38.114Z,18.13
2023-01-08T20:41:46.621Z,18.70
2023-01-08T20:46:58.643Z,19.33
2023-01-08T20:52:01.822Z,17.93
2023-01-08T20:57:05.073Z,17.23
2023-01-08T21:02:08.021Z,15.00
2023-01-08T21:07:10.991Z,16.77
2023-01-08T21:12:15.194Z,16.43
2023-01-08T21:17:18.207Z,19.83
2023-01-08T21:22:21.047Z,19.93
2023-01-08T21:27:24.160Z,19.80
2023-01-08T21:32:27.138Z,19.57
2023-01-08T21:37:32.917Z,18.33
2023-01-08T21:42:59.541Z,17.10
2023-01-08T21:48:02.658Z,16.40
2023-01-08T21:53:23.935Z,17.47
2023-01-08T21:58:27.995Z,19.57
2023-01-08T22:03:30.849Z,17.30
2023-01-08T22:08:34.211Z,16.43
2023-01-08T22:13:39.120Z,16.77
2023-01-08T22:18:42.080Z,17.73
2023-01-08T22:23:44.931Z,15.73
2023-01-08T22:28:47.829Z,15.47
2023-01-08T22:33:54.379Z,16.33
2023-01-08T22:38:57.378Z,15.57
2023-01-08T22:44:00.339Z,14.70
2023-01-08T22:49:03.285Z,13.57
2023-01-08T22:54:06.119Z,14.63
2023-01-08T22:59:08.979Z,14.70
2023-01-08T23:04:11.971Z,16.20
2023-01-08T23:09:14.924Z,14.90
2023-01-08T23:14:17.918Z,15.00
2023-01-08T23:19:20.738Z,16.33
2023-01-08T23:24:23.567Z,17.07
2023-01-08T23:29:29.756Z,14.57
2023-01-08T23:34:32.620Z,15.57
2023-01-08T23:39:35.662Z,13.87
2023-01-08T23:44:38.633Z,14.93
2023-01-08T23:49:41.632Z,14.47
2023-01-08T23:54:44.511Z,14.83
2023-01-08T23:59:47.880Z,17.13
